createdAt,value
2019-03-13T00:04:54.740Z,22.63
2019-03-13T00:10:00.354Z,23.03
2019-03-13T00:15:08.743Z,22.83
2019-03-13T00:20:14.687Z,24.53
2019-03-13T00:25:20.480Z,20.23
2019-03-13T00:30:25.820Z,23.03
2019-03-13T00:35:31.063Z,22.93
2019-03-13T00:40:36.434Z,23.87
2019-03-13T00:45:42.108Z,22.30
2019-03-13T00:50:47.703Z,22.53
2019-03-13T00:55:52.960Z,21.10
2019-03-13T01:01:02.652Z,25.87
2019-03-13T01:06:12.543Z,22.93
2019-03-13T01:11:17.920Z,24.07
2019-03-13T01:16:23.657Z,22.55
2019-03-13T01:21:30.143Z,22.93
2019-03-13T01:26:36.417Z,20.17
2019-03-13T01:31:52.345Z,21.93
2019-03-13T01:36:57.599Z,22.37
2019-03-13T01:42:02.855Z,27.67
2019-03-13T01:47:08.111Z,25.60
2019-03-13T01:52:13.375Z,22.60
2019-03-13T01:57:18.592Z,24.07
2019-03-13T02:02:23.803Z,26.20
2019-03-13T02:07:30.377Z,26.47
2019-03-13T02:12:35.823Z,23.73
2019-03-13T02:17:41.286Z,25.35
2019-03-13T02:22:47.376Z,21.90
2019-03-13T02:27:52.575Z,26.45
2019-03-13T02:32:57.776Z,22.67
2019-03-13T02:38:03.125Z,21.77
2019-03-13T02:43:08.338Z,23.47
2019-03-13T02:48:13.536Z,22.97
2019-03-13T02:53:18.837Z,21.63
2019-03-13T02:58:23.953Z,24.43
2019-03-13T03:03:30.655Z,22.90
2019-03-13T03:08:35.803Z,23.57
2019-03-13T03:13:41.063Z,22.27
2019-03-13T03:18:46.199Z,21.83
2019-03-13T03:23:51.878Z,21.03
2019-03-13T03:28:57.245Z,20.07
2019-03-13T03:34:02.976Z,22.17
2019-03-13T03:39:08.240Z,21.07
2019-03-13T03:44:14.299Z,19.90
2019-03-13T03:49:20.067Z,19.35
2019-03-13T03:54:25.239Z,19.05
2019-03-13T03:59:30.408Z,19.15
2019-03-13T04:04:35.537Z,18.53
2019-03-13T04:09:40.783Z,18.57
2019-03-13T04:14:47.554Z,17.90
2019-03-13T04:19:53.043Z,19.07
2019-03-13T04:25:13.407Z,18.30
2019-03-13T04:30:19.681Z,18.23
2019-03-13T04:35:24.910Z,18.00
2019-03-13T04:40:29.966Z,17.67
2019-03-13T04:45:35.582Z,18.33
2019-03-13T04:50:40.800Z,16.30
2019-03-13T04:55:46.142Z,16.43
2019-03-13T05:00:51.279Z,16.27
2019-03-13T05:05:56.532Z,17.73
2019-03-13T05:11:01.680Z,15.07
2019-03-13T05:16:07.065Z,16.17
2019-03-13T05:21:12.153Z,15.80
2019-03-13T05:26:17.594Z,14.15
2019-03-13T05:31:22.887Z,13.70
2019-03-13T05:36:28.029Z,15.80
2019-03-13T05:41:33.283Z,16.10
2019-03-13T05:46:39.529Z,21.97
2019-03-13T05:51:44.708Z,19.15
2019-03-13T05:56:49.857Z,19.60
2019-03-13T06:01:55.413Z,13.43
2019-03-13T06:07:00.520Z,13.43
2019-03-13T06:12:05.755Z,14.23
2019-03-13T06:17:11.144Z,13.83
2019-03-13T06:22:16.737Z,14.40
2019-03-13T06:27:22.010Z,13.00
2019-03-13T06:32:27.350Z,14.17
2019-03-13T06:37:32.776Z,12.55
2019-03-13T06:42:37.993Z,13.70
2019-03-13T06:47:43.200Z,12.70
2019-03-13T06:52:48.524Z,13.73
2019-03-13T06:57:53.618Z,13.10
2019-03-13T07:03:01.503Z,13.23
2019-03-13T07:08:24.585Z,13.60
2019-03-13T07:13:31.273Z,13.00
2019-03-13T07:18:58.787Z,11.97
2019-03-13T07:24:07.055Z,15.23
2019-03-13T07:29:19.740Z,12.57
2019-03-13T07:34:29.220Z,15.03
2019-03-13T07:39:35.984Z,16.80
2019-03-13T07:44:42.718Z,20.87
2019-03-13T07:49:52.552Z,17.23
2019-03-13T07:54:59.380Z,16.60
2019-03-13T08:00:18.424Z,16.82
2019-03-13T08:05:31.180Z,17.80
2019-03-13T08:10:54.174Z,20.63
2019-03-13T08:16:01.040Z,16.03
2019-03-13T08:21:10.706Z,18.00
2019-03-13T08:26:17.533Z,18.43
2019-03-13T08:31:30.831Z,21.93
2019-03-13T08:36:54.298Z,20.57
2019-03-13T08:42:01.053Z,16.77
2019-03-13T08:47:24.262Z,17.17
2019-03-13T08:52:30.945Z,15.77
2019-03-13T08:57:37.747Z,17.43
2019-03-13T09:02:47.154Z,15.20
2019-03-13T09:08:10.085Z,15.97
2019-03-13T09:13:33.308Z,15.10
2019-03-13T09:18:40.087Z,12.97
2019-03-13T09:23:49.952Z,12.97
2019-03-13T09:29:14.697Z,13.53
2019-03-13T09:34:22.210Z,12.03
2019-03-13T09:39:35.268Z,18.23
2019-03-13T09:44:44.646Z,12.63
2019-03-13T09:50:07.572Z,11.37
2019-03-13T09:55:26.666Z,13.50
2019-03-13T10:00:36.435Z,11.80
2019-03-13T10:05:47.332Z,11.47
2019-03-13T10:10:54.092Z,10.47
2019-03-13T10:16:16.993Z,10.73
2019-03-13T10:21:26.847Z,10.20
2019-03-13T10:26:45.235Z,11.90
2019-03-13T10:31:57.710Z,11.07
2019-03-13T10:37:19.311Z,9.07
2019-03-13T10:42:26.201Z,10.47
2019-03-13T10:47:38.837Z,7.63
2019-03-13T10:53:01.024Z,9.37
2019-03-13T10:58:07.843Z,6.80
2019-03-13T11:03:14.829Z,5.20
2019-03-13T11:08:36.850Z,4.47
2019-03-13T11:13:46.404Z,5.80
2019-03-13T11:18:53.151Z,4.47
2019-03-13T11:24:08.890Z,4.77
2019-03-13T11:29:30.902Z,3.87
2019-03-13T11:34:37.649Z,4.13
2019-03-13T11:39:53.525Z,6.67
2019-03-13T11:45:09.291Z,4.00
2019-03-13T11:50:16.218Z,4.13
2019-03-13T11:55:38.388Z,3.60
2019-03-13T12:00:57.650Z,4.60
2019-03-13T12:06:13.098Z,4.57
2019-03-13T12:11:22.671Z,3.40
2019-03-13T12:16:29.560Z,4.10
2019-03-13T12:21:42.308Z,3.63
2019-03-13T12:26:49.212Z,3.50
2019-03-13T12:32:04.765Z,3.47
2019-03-13T12:37:26.492Z,3.30
2019-03-13T12:42:42.280Z,3.03
2019-03-13T12:47:57.701Z,3.23
2019-03-13T12:53:04.402Z,3.00
2019-03-13T12:58:17.295Z,2.87
2019-03-13T13:03:42.782Z,2.53
2019-03-13T13:08:58.178Z,4.47
2019-03-13T13:14:05.087Z,3.17
2019-03-13T13:19:10.447Z,3.60
2019-03-13T13:24:17.563Z,3.20
2019-03-13T13:29:23.181Z,32.23
2019-03-13T13:34:28.274Z,3.73
2019-03-13T13:39:33.621Z,3.27
2019-03-13T13:44:38.935Z,2.40
2019-03-13T13:49:44.029Z,3.03
2019-03-13T13:54:49.125Z,12.37
2019-03-13T13:59:54.187Z,7.33
2019-03-13T14:04:59.239Z,16.73
2019-03-13T14:10:07.893Z,12.27
2019-03-13T14:15:14.789Z,3.20
2019-03-13T14:20:19.992Z,4.23
2019-03-13T14:25:25.272Z,2.73
2019-03-13T14:30:30.530Z,3.20
2019-03-13T14:35:35.679Z,3.50
2019-03-13T14:40:40.714Z,5.17
2019-03-13T14:45:46.034Z,6.80
2019-03-13T14:50:51.200Z,3.27
2019-03-13T14:55:56.394Z,7.07
2019-03-13T15:01:03.030Z,4.93
2019-03-13T15:06:08.264Z,4.20
2019-03-13T15:11:13.355Z,6.77
2019-03-13T15:16:18.854Z,3.47
2019-03-13T15:21:23.963Z,21.50
2019-03-13T15:26:29.233Z,18.50
2019-03-13T15:31:34.417Z,4.67
2019-03-13T15:36:39.559Z,3.10
2019-03-13T15:41:44.768Z,3.63
2019-03-13T15:46:50.179Z,4.60
2019-03-13T15:51:55.342Z,4.37
2019-03-13T15:57:00.406Z,14.00
2019-03-13T16:02:05.596Z,5.80
2019-03-13T16:07:10.722Z,6.83
2019-03-13T16:12:15.856Z,11.13
2019-03-13T16:17:21.109Z,5.57
2019-03-13T16:22:26.234Z,17.30
2019-03-13T16:27:31.458Z,11.00
2019-03-13T16:32:43.853Z,9.77
2019-03-13T16:37:43.670Z,5.77
2019-03-13T16:42:48.764Z,5.97
2019-03-13T16:47:54.368Z,31.00
2019-03-13T16:52:59.650Z,60.07
2019-03-13T16:58:05.269Z,103.10
2019-03-13T17:03:10.479Z,76.97
2019-03-13T17:08:15.802Z,42.20
2019-03-13T17:13:20.975Z,53.20
2019-03-13T17:18:26.164Z,21.83
2019-03-13T17:23:31.385Z,19.37
2019-03-13T17:28:36.588Z,8.40
2019-03-13T17:33:41.728Z,6.50
2019-03-13T17:38:46.912Z,21.53
2019-03-13T17:43:52.285Z,7.87
2019-03-13T17:48:59.566Z,7.30
2019-03-13T17:54:05.937Z,8.30
2019-03-13T17:59:11.034Z,11.63
2019-03-13T18:04:16.185Z,8.33
2019-03-13T18:09:21.223Z,19.47
2019-03-13T18:14:29.597Z,10.17
2019-03-13T18:19:33.166Z,8.30
2019-03-13T18:24:38.608Z,7.07
2019-03-13T18:29:43.633Z,7.67
2019-03-13T18:34:48.667Z,9.10
2019-03-13T18:39:53.717Z,8.17
2019-03-13T18:44:58.897Z,7.60
2019-03-13T18:50:07.607Z,10.23
2019-03-13T18:55:15.763Z,10.30
2019-03-13T19:00:26.546Z,19.70
2019-03-13T19:05:36.759Z,12.03
2019-03-13T19:10:42.129Z,8.97
2019-03-13T19:15:47.365Z,10.27
2019-03-13T19:20:53.844Z,9.50
2019-03-13T19:25:59.648Z,9.70
2019-03-13T19:31:04.815Z,9.47
2019-03-13T19:36:09.976Z,7.60
2019-03-13T19:41:15.368Z,8.35
2019-03-13T19:46:20.796Z,7.83
2019-03-13T19:51:25.935Z,8.25
2019-03-13T19:56:31.256Z,8.80
2019-03-13T20:01:36.792Z,9.03
2019-03-13T20:06:42.661Z,11.13
2019-03-13T20:11:47.897Z,8.40
2019-03-13T20:16:53.118Z,8.43
2019-03-13T20:21:58.203Z,11.63
2019-03-13T20:27:03.499Z,7.00
2019-03-13T20:32:08.715Z,6.72
2019-03-13T20:37:13.952Z,6.93
2019-03-13T20:42:19.706Z,6.45
2019-03-13T20:47:25.049Z,8.47
2019-03-13T20:52:30.333Z,10.63
2019-03-13T20:57:36.648Z,7.77
2019-03-13T21:02:42.454Z,7.90
2019-03-13T21:07:47.719Z,9.43
2019-03-13T21:12:53.045Z,8.53
2019-03-13T21:17:58.298Z,9.00
2019-03-13T21:23:03.564Z,8.23
2019-03-13T21:28:08.766Z,7.47
2019-03-13T21:33:13.921Z,6.60
2019-03-13T21:38:19.787Z,10.43
2019-03-13T21:43:24.889Z,8.87
2019-03-13T21:48:30.108Z,8.60
2019-03-13T21:53:35.520Z,7.93
2019-03-13T21:58:40.573Z,8.43
2019-03-13T22:03:45.641Z,7.40
2019-03-13T22:08:50.819Z,8.00
2019-03-13T22:13:56.003Z,8.73
2019-03-13T22:19:01.203Z,8.20
2019-03-13T22:24:06.317Z,8.20
2019-03-13T22:29:11.615Z,9.13
2019-03-13T22:34:16.885Z,7.08
2019-03-13T22:39:21.942Z,6.90
2019-03-13T22:44:26.988Z,7.23
2019-03-13T22:49:32.094Z,6.50
2019-03-13T22:54:37.518Z,5.90
2019-03-13T22:59:42.750Z,6.13
2019-03-13T23:04:48.142Z,6.13
2019-03-13T23:09:53.468Z,5.80
2019-03-13T23:14:58.602Z,4.75
2019-03-13T23:20:04.332Z,6.20
2019-03-13T23:25:10.676Z,6.30
2019-03-13T23:30:16.236Z,8.03
2019-03-13T23:35:21.893Z,8.13
2019-03-13T23:40:26.999Z,8.47
2019-03-13T23:45:33.453Z,7.37
2019-03-13T23:50:38.496Z,7.07
2019-03-13T23:55:43.764Z,6.83
